sensor_id;sensor_type;location;lat;lon;timestamp;pressure;altitude;pressure_sealevel;temperature;humidity
46690;BME280;32423;45.398;10.874;2022-12-29T00:01:00;101504.44;;;12.45;54.54
46690;BME280;32423;45.398;10.874;2022-12-29T00:03:45;101496.50;;;12.35;54.72
46690;BME280;32423;45.398;10.874;2022-12-29T00:06:30;101496.00;;;12.33;54.30
46690;BME280;32423;45.398;10.874;2022-12-29T00:09:15;101488.19;;;12.40;53.42
46690;BME280;32423;45.398;10.874;2022-12-29T00:12:00;101483.53;;;12.40;53.28
46690;BME280;32423;45.398;10.874;2022-12-29T00:14:46;101487.84;;;12.33;53.42
46690;BME280;32423;45.398;10.874;2022-12-29T00:17:50;101501.00;;;12.17;54.17
46690;BME280;32423;45.398;10.874;2022-12-29T00:20:34;101508.81;;;11.96;54.71
46690;BME280;32423;45.398;10.874;2022-12-29T00:23:38;101514.72;;;11.44;56.71
46690;BME280;32423;45.398;10.874;2022-12-29T00:26:41;101511.22;;;11.71;56.65
46690;BME280;32423;45.398;10.874;2022-12-29T00:29:44;101506.16;;;11.64;56.73
46690;BME280;32423;45.398;10.874;2022-12-29T00:32:48;101502.00;;;11.39;57.61
46690;BME280;32423;45.398;10.874;2022-12-29T00:35:52;101487.81;;;11.56;57.84
46690;BME280;32423;45.398;10.874;2022-12-29T00:38:39;101490.84;;;11.41;58.11
46690;BME280;32423;45.398;10.874;2022-12-29T00:41:44;101487.81;;;11.56;58.48
46690;BME280;32423;45.398;10.874;2022-12-29T00:44:48;101480.66;;;11.87;56.93
46690;BME280;32423;45.398;10.874;2022-12-29T00:47:33;101485.06;;;11.29;58.66
46690;BME280;32423;45.398;10.874;2022-12-29T00:50:17;101492.78;;;11.08;60.08
46690;BME280;32423;45.398;10.874;2022-12-29T00:53:01;101497.66;;;11.11;60.53
46690;BME280;32423;45.398;10.874;2022-12-29T00:55:46;101501.22;;;10.93;61.06
46690;BME280;32423;45.398;10.874;2022-12-29T00:58:30;101486.75;;;10.79;61.34
46690;BME280;32423;45.398;10.874;2022-12-29T01:01:15;101474.63;;;11.03;61.05
46690;BME280;32423;45.398;10.874;2022-12-29T01:04:00;101483.81;;;11.07;60.99
46690;BME280;32423;45.398;10.874;2022-12-29T01:06:44;101481.91;;;11.08;61.01
46690;BME280;32423;45.398;10.874;2022-12-29T01:09:29;101489.78;;;11.09;60.94
46690;BME280;32423;45.398;10.874;2022-12-29T01:12:33;101503.56;;;10.99;61.52
46690;BME280;32423;45.398;10.874;2022-12-29T01:15:26;101492.59;;;11.04;61.43
46690;BME280;32423;45.398;10.874;2022-12-29T01:18:11;101494.28;;;11.00;61.27
46690;BME280;32423;45.398;10.874;2022-12-29T01:21:00;101489.50;;;11.25;60.61
46690;BME280;32423;45.398;10.874;2022-12-29T01:23:45;101487.72;;;11.47;59.83
46690;BME280;32423;45.398;10.874;2022-12-29T01:26:29;101483.88;;;11.62;59.35
46690;BME280;32423;45.398;10.874;2022-12-29T01:29:13;101488.50;;;11.62;59.43
46690;BME280;32423;45.398;10.874;2022-12-29T01:31:58;101484.59;;;11.81;58.83
46690;BME280;32423;45.398;10.874;2022-12-29T01:34:42;101488.31;;;11.85;58.47
46690;BME280;32423;45.398;10.874;2022-12-29T01:37:27;101490.16;;;11.76;58.86
46690;BME280;32423;45.398;10.874;2022-12-29T01:40:12;101491.34;;;11.84;58.76
46690;BME280;32423;45.398;10.874;2022-12-29T01:42:56;101487.91;;;11.92;58.47
46690;BME280;32423;45.398;10.874;2022-12-29T01:45:45;101494.56;;;11.99;58.28
46690;BME280;32423;45.398;10.874;2022-12-29T01:48:32;101504.25;;;12.06;58.30
46690;BME280;32423;45.398;10.874;2022-12-29T01:51:16;101500.53;;;12.02;58.17
46690;BME280;32423;45.398;10.874;2022-12-29T01:54:02;101495.56;;;11.90;58.77
46690;BME280;32423;45.398;10.874;2022-12-29T01:56:49;101495.28;;;11.91;58.75
46690;BME280;32423;45.398;10.874;2022-12-29T01:59:36;101486.16;;;12.10;58.43
46690;BME280;32423;45.398;10.874;2022-12-29T02:02:23;101480.00;;;12.18;58.15
46690;BME280;32423;45.398;10.874;2022-12-29T02:05:14;101479.56;;;12.24;58.29
46690;BME280;32423;45.398;10.874;2022-12-29T02:08:03;101474.78;;;12.30;58.07
46690;BME280;32423;45.398;10.874;2022-12-29T02:10:48;101465.03;;;12.29;58.24
46690;BME280;32423;45.398;10.874;2022-12-29T02:13:34;101465.81;;;12.29;58.43
46690;BME280;32423;45.398;10.874;2022-12-29T02:25:30;101469.69;;;12.15;58.47
46690;BME280;32423;45.398;10.874;2022-12-29T02:37:04;101476.00;;;12.02;58.75
46690;BME280;32423;45.398;10.874;2022-12-29T02:42:59;101466.06;;;12.06;58.57
46690;BME280;32423;45.398;10.874;2022-12-29T02:48:44;101448.53;;;11.98;58.90
46690;BME280;32423;45.398;10.874;2022-12-29T02:51:32;101454.59;;;11.95;58.76
46690;BME280;32423;45.398;10.874;2022-12-29T02:54:19;101454.41;;;11.91;58.66
46690;BME280;32423;45.398;10.874;2022-12-29T03:00:10;101440.97;;;11.95;59.00
46690;BME280;32423;45.398;10.874;2022-12-29T03:11:24;101449.41;;;12.07;58.63
46690;BME280;32423;45.398;10.874;2022-12-29T03:14:34;101467.03;;;11.60;60.24
46690;BME280;32423;45.398;10.874;2022-12-29T03:20:39;101458.44;;;11.39;61.54
46690;BME280;32423;45.398;10.874;2022-12-29T03:23:27;101443.50;;;11.64;60.21
46690;BME280;32423;45.398;10.874;2022-12-29T03:26:13;101435.31;;;11.64;59.70
46690;BME280;32423;45.398;10.874;2022-12-29T03:28:59;101439.09;;;11.68;59.62
46690;BME280;32423;45.398;10.874;2022-12-29T03:31:47;101435.72;;;11.71;59.27
46690;BME280;32423;45.398;10.874;2022-12-29T03:34:32;101436.66;;;11.53;59.49
46690;BME280;32423;45.398;10.874;2022-12-29T03:37:18;101434.44;;;11.41;60.22
46690;BME280;32423;45.398;10.874;2022-12-29T03:40:05;101437.56;;;11.35;60.60
46690;BME280;32423;45.398;10.874;2022-12-29T03:42:50;101431.41;;;11.29;60.34
46690;BME280;32423;45.398;10.874;2022-12-29T03:45:35;101428.69;;;11.29;60.64
46690;BME280;32423;45.398;10.874;2022-12-29T03:48:20;101431.13;;;11.31;60.12
46690;BME280;32423;45.398;10.874;2022-12-29T03:51:07;101432.72;;;11.18;60.54
46690;BME280;32423;45.398;10.874;2022-12-29T03:53:52;101429.19;;;11.45;59.33
46690;BME280;32423;45.398;10.874;2022-12-29T03:56:36;101439.47;;;11.34;59.29
46690;BME280;32423;45.398;10.874;2022-12-29T03:59:21;101434.44;;;11.55;58.59
46690;BME280;32423;45.398;10.874;2022-12-29T04:02:06;101435.25;;;11.55;58.28
46690;BME280;32423;45.398;10.874;2022-12-29T04:04:51;101435.44;;;11.59;57.84
46690;BME280;32423;45.398;10.874;2022-12-29T04:07:36;101426.06;;;11.51;58.10
46690;BME280;32423;45.398;10.874;2022-12-29T04:10:21;101431.00;;;11.49;58.53
46690;BME280;32423;45.398;10.874;2022-12-29T04:13:09;101438.09;;;11.37;58.79
46690;BME280;32423;45.398;10.874;2022-12-29T04:15:53;101429.19;;;11.45;58.79
46690;BME280;32423;45.398;10.874;2022-12-29T04:18:38;101431.00;;;11.63;58.65
46690;BME280;32423;45.398;10.874;2022-12-29T04:21:23;101438.66;;;11.34;59.01
46690;BME280;32423;45.398;10.874;2022-12-29T04:24:07;101437.81;;;10.92;59.03
46690;BME280;32423;45.398;10.874;2022-12-29T04:26:57;101439.06;;;11.13;59.08
46690;BME280;32423;45.398;10.874;2022-12-29T04:30:04;101428.69;;;11.43;58.84
46690;BME280;32423;45.398;10.874;2022-12-29T04:33:05;101430.00;;;11.59;58.42
46690;BME280;32423;45.398;10.874;2022-12-29T04:35:50;101417.38;;;11.63;57.82
46690;BME280;32423;45.398;10.874;2022-12-29T04:38:37;101423.44;;;11.60;58.17
46690;BME280;32423;45.398;10.874;2022-12-29T04:41:23;101421.13;;;11.67;58.58
46690;BME280;32423;45.398;10.874;2022-12-29T04:44:08;101422.13;;;11.71;58.29
46690;BME280;32423;45.398;10.874;2022-12-29T04:47:11;101425.47;;;11.82;58.28
46690;BME280;32423;45.398;10.874;2022-12-29T04:50:14;101442.50;;;11.60;58.51
46690;BME280;32423;45.398;10.874;2022-12-29T04:53:09;101448.22;;;10.90;60.77
46690;BME280;32423;45.398;10.874;2022-12-29T04:55:55;101448.31;;;10.85;61.45
46690;BME280;32423;45.398;10.874;2022-12-29T04:58:40;101445.69;;;11.07;61.09
46690;BME280;32423;45.398;10.874;2022-12-29T05:01:24;101403.38;;;11.29;60.05
46690;BME280;32423;45.398;10.874;2022-12-29T05:04:08;101412.66;;;11.28;60.29
46690;BME280;32423;45.398;10.874;2022-12-29T05:06:53;101411.97;;;11.36;60.12
46690;BME280;32423;45.398;10.874;2022-12-29T05:09:37;101430.81;;;11.46;60.00
46690;BME280;32423;45.398;10.874;2022-12-29T05:12:23;101427.59;;;11.17;61.00
46690;BME280;32423;45.398;10.874;2022-12-29T05:15:15;101417.41;;;11.36;60.39
46690;BME280;32423;45.398;10.874;2022-12-29T05:18:01;101431.22;;;11.26;61.30
46690;BME280;32423;45.398;10.874;2022-12-29T05:20:47;101435.75;;;11.44;60.99
46690;BME280;32423;45.398;10.874;2022-12-29T05:23:32;101443.72;;;11.54;60.73
46690;BME280;32423;45.398;10.874;2022-12-29T05:26:21;101446.34;;;11.59;60.40
46690;BME280;32423;45.398;10.874;2022-12-29T05:29:15;101459.13;;;11.04;62.26
46690;BME280;32423;45.398;10.874;2022-12-29T05:32:00;101446.75;;;11.25;61.53
46690;BME280;32423;45.398;10.874;2022-12-29T05:34:45;101434.72;;;11.12;62.06
46690;BME280;32423;45.398;10.874;2022-12-29T05:37:29;101425.47;;;11.27;61.37
46690;BME280;32423;45.398;10.874;2022-12-29T05:40:14;101439.88;;;11.14;61.71
46690;BME280;32423;45.398;10.874;2022-12-29T05:42:59;101443.97;;;10.84;62.70
46690;BME280;32423;45.398;10.874;2022-12-29T05:46:09;101451.38;;;11.25;61.91
46690;BME280;32423;45.398;10.874;2022-12-29T05:49:13;101449.56;;;11.20;61.67
46690;BME280;32423;45.398;10.874;2022-12-29T05:52:28;101446.22;;;11.23;61.24
46690;BME280;32423;45.398;10.874;2022-12-29T05:55:13;101440.81;;;11.37;60.84
46690;BME280;32423;45.398;10.874;2022-12-29T05:57:59;101443.31;;;11.33;61.02
46690;BME280;32423;45.398;10.874;2022-12-29T06:00:44;101436.47;;;11.36;60.82
46690;BME280;32423;45.398;10.874;2022-12-29T06:03:30;101441.63;;;11.37;60.78
46690;BME280;32423;45.398;10.874;2022-12-29T06:06:15;101434.75;;;11.40;60.56
46690;BME280;32423;45.398;10.874;2022-12-29T06:09:00;101437.38;;;11.31;60.85
46690;BME280;32423;45.398;10.874;2022-12-29T06:11:46;101440.16;;;11.12;61.23
46690;BME280;32423;45.398;10.874;2022-12-29T06:14:31;101443.22;;;11.11;61.38
46690;BME280;32423;45.398;10.874;2022-12-29T06:17:16;101437.66;;;11.30;60.72
46690;BME280;32423;45.398;10.874;2022-12-29T06:20:01;101433.22;;;11.34;60.11
46690;BME280;32423;45.398;10.874;2022-12-29T06:22:46;101428.78;;;11.38;59.48
46690;BME280;32423;45.398;10.874;2022-12-29T06:25:31;101426.28;;;11.41;59.45
46690;BME280;32423;45.398;10.874;2022-12-29T06:28:18;101430.50;;;11.34;58.34
46690;BME280;32423;45.398;10.874;2022-12-29T06:31:03;101423.84;;;11.40;58.54
46690;BME280;32423;45.398;10.874;2022-12-29T06:33:48;101428.78;;;11.51;58.04
46690;BME280;32423;45.398;10.874;2022-12-29T06:36:33;101420.53;;;11.15;58.85
46690;BME280;32423;45.398;10.874;2022-12-29T06:39:18;101434.50;;;10.95;59.27
46690;BME280;32423;45.398;10.874;2022-12-29T06:42:16;101442.84;;;10.85;59.82
46690;BME280;32423;45.398;10.874;2022-12-29T06:45:07;101436.59;;;10.71;60.64
46690;BME280;32423;45.398;10.874;2022-12-29T06:47:52;101443.22;;;10.65;60.99
46690;BME280;32423;45.398;10.874;2022-12-29T06:50:36;101450.16;;;10.39;62.44
46690;BME280;32423;45.398;10.874;2022-12-29T06:53:20;101449.50;;;10.28;63.85
46690;BME280;32423;45.398;10.874;2022-12-29T06:56:05;101446.34;;;10.40;63.80
46690;BME280;32423;45.398;10.874;2022-12-29T06:58:49;101439.56;;;10.56;63.87
46690;BME280;32423;45.398;10.874;2022-12-29T07:01:34;101440.75;;;10.50;64.19
46690;BME280;32423;45.398;10.874;2022-12-29T07:04:20;101436.22;;;10.59;64.05
46690;BME280;32423;45.398;10.874;2022-12-29T07:07:04;101428.84;;;10.46;64.23
46690;BME280;32423;45.398;10.874;2022-12-29T07:09:50;101431.56;;;10.27;64.87
46690;BME280;32423;45.398;10.874;2022-12-29T07:12:34;101436.66;;;10.34;64.89
46690;BME280;32423;45.398;10.874;2022-12-29T07:15:19;101432.66;;;10.77;63.46
46690;BME280;32423;45.398;10.874;2022-12-29T07:18:03;101433.38;;;10.83;63.40
46690;BME280;32423;45.398;10.874;2022-12-29T07:20:48;101438.34;;;10.62;63.20
46690;BME280;32423;45.398;10.874;2022-12-29T07:23:33;101449.25;;;10.43;63.87
46690;BME280;32423;45.398;10.874;2022-12-29T07:26:17;101448.97;;;10.45;63.80
46690;BME280;32423;45.398;10.874;2022-12-29T07:29:03;101447.34;;;10.44;63.90
46690;BME280;32423;45.398;10.874;2022-12-29T07:31:47;101443.53;;;10.77;63.02
46690;BME280;32423;45.398;10.874;2022-12-29T07:34:31;101437.13;;;10.87;62.92
46690;BME280;32423;45.398;10.874;2022-12-29T07:37:16;101440.16;;;10.99;62.72
46690;BME280;32423;45.398;10.874;2022-12-29T07:40:01;101440.78;;;11.09;62.47
46690;BME280;32423;45.398;10.874;2022-12-29T07:42:45;101438.25;;;11.13;62.30
46690;BME280;32423;45.398;10.874;2022-12-29T07:45:33;101444.63;;;11.22;62.08
46690;BME280;32423;45.398;10.874;2022-12-29T07:48:25;101443.81;;;11.22;62.29
46690;BME280;32423;45.398;10.874;2022-12-29T07:51:10;101447.22;;;11.13;62.35
46690;BME280;32423;45.398;10.874;2022-12-29T07:53:55;101460.66;;;11.24;62.46
46690;BME280;32423;45.398;10.874;2022-12-29T07:56:39;101479.44;;;10.93;62.99
46690;BME280;32423;45.398;10.874;2022-12-29T07:59:24;101484.69;;;11.63;66.08
46690;BME280;32423;45.398;10.874;2022-12-29T08:02:09;101471.59;;;8.79;72.76
46690;BME280;32423;45.398;10.874;2022-12-29T08:04:54;101472.06;;;8.57;73.86
46690;BME280;32423;45.398;10.874;2022-12-29T08:07:39;101475.13;;;8.45;75.38
46690;BME280;32423;45.398;10.874;2022-12-29T08:10:23;101476.38;;;8.92;76.02
46690;BME280;32423;45.398;10.874;2022-12-29T08:13:07;101473.66;;;9.68;71.80
46690;BME280;32423;45.398;10.874;2022-12-29T08:15:52;101478.09;;;9.83;69.58
46690;BME280;32423;45.398;10.874;2022-12-29T08:18:36;101487.56;;;9.85;69.21
46690;BME280;32423;45.398;10.874;2022-12-29T08:21:21;101480.03;;;9.59;70.24
46690;BME280;32423;45.398;10.874;2022-12-29T08:24:05;101494.16;;;9.56;70.71
46690;BME280;32423;45.398;10.874;2022-12-29T08:26:50;101495.78;;;9.33;71.23
46690;BME280;32423;45.398;10.874;2022-12-29T08:29:35;101507.69;;;9.61;70.79
46690;BME280;32423;45.398;10.874;2022-12-29T08:32:19;101502.84;;;9.58;70.83
46690;BME280;32423;45.398;10.874;2022-12-29T08:35:04;101497.38;;;9.39;71.37
46690;BME280;32423;45.398;10.874;2022-12-29T08:37:49;101514.31;;;9.26;71.85
46690;BME280;32423;45.398;10.874;2022-12-29T08:40:33;101516.75;;;9.27;72.32
46690;BME280;32423;45.398;10.874;2022-12-29T08:43:17;101520.44;;;9.36;72.42
46690;BME280;32423;45.398;10.874;2022-12-29T08:46:02;101522.06;;;9.61;71.24
46690;BME280;32423;45.398;10.874;2022-12-29T08:48:47;101517.91;;;9.45;72.38
46690;BME280;32423;45.398;10.874;2022-12-29T08:51:31;101514.84;;;9.52;71.93
46690;BME280;32423;45.398;10.874;2022-12-29T08:54:16;101517.41;;;9.43;71.37
46690;BME280;32423;45.398;10.874;2022-12-29T08:57:01;101509.25;;;9.43;72.13
46690;BME280;32423;45.398;10.874;2022-12-29T08:59:52;101510.41;;;9.37;72.28
46690;BME280;32423;45.398;10.874;2022-12-29T09:02:37;101494.94;;;9.37;72.71
46690;BME280;32423;45.398;10.874;2022-12-29T09:05:22;101490.88;;;9.35;72.71
46690;BME280;32423;45.398;10.874;2022-12-29T09:08:06;101502.38;;;9.51;71.97
46690;BME280;32423;45.398;10.874;2022-12-29T09:10:50;101507.22;;;9.01;73.27
46690;BME280;32423;45.398;10.874;2022-12-29T09:13:35;101504.06;;;8.89;74.50
46690;BME280;32423;45.398;10.874;2022-12-29T09:16:20;101524.72;;;9.19;73.73
46690;BME280;32423;45.398;10.874;2022-12-29T09:19:05;101524.25;;;9.35;72.47
46690;BME280;32423;45.398;10.874;2022-12-29T09:21:50;101530.75;;;9.39;72.32
46690;BME280;32423;45.398;10.874;2022-12-29T09:24:34;101525.53;;;9.19;72.52
46690;BME280;32423;45.398;10.874;2022-12-29T09:27:18;101499.78;;;9.40;72.23
46690;BME280;32423;45.398;10.874;2022-12-29T09:30:04;101500.34;;;9.14;72.84
46690;BME280;32423;45.398;10.874;2022-12-29T09:32:50;101500.47;;;9.51;71.61
46690;BME280;32423;45.398;10.874;2022-12-29T09:35:34;101500.94;;;9.06;74.21
46690;BME280;32423;45.398;10.874;2022-12-29T09:38:19;101502.78;;;9.63;71.77
46690;BME280;32423;45.398;10.874;2022-12-29T09:44:13;101505.06;;;9.98;70.08
46690;BME280;32423;45.398;10.874;2022-12-29T09:47:00;101510.06;;;9.43;70.87
46690;BME280;32423;45.398;10.874;2022-12-29T09:49:49;101522.88;;;9.38;72.38
46690;BME280;32423;45.398;10.874;2022-12-29T09:52:35;101511.91;;;9.72;70.18
46690;BME280;32423;45.398;10.874;2022-12-29T09:55:22;101500.13;;;9.58;70.89
46690;BME280;32423;45.398;10.874;2022-12-29T09:58:20;101502.47;;;9.88;70.29
46690;BME280;32423;45.398;10.874;2022-12-29T10:04:05;101508.59;;;9.99;69.31
46690;BME280;32423;45.398;10.874;2022-12-29T10:12:40;101501.50;;;10.59;67.17
46690;BME280;32423;45.398;10.874;2022-12-29T10:21:26;101464.44;;;10.95;64.39
46690;BME280;32423;45.398;10.874;2022-12-29T10:24:14;101471.59;;;10.59;66.81
46690;BME280;32423;45.398;10.874;2022-12-29T10:27:00;101486.88;;;10.87;66.97
46690;BME280;32423;45.398;10.874;2022-12-29T10:29:50;101487.69;;;11.34;64.45
46690;BME280;32423;45.398;10.874;2022-12-29T10:32:38;101472.97;;;10.75;67.49
46690;BME280;32423;45.398;10.874;2022-12-29T10:35:24;101459.44;;;10.70;65.30
46690;BME280;32423;45.398;10.874;2022-12-29T10:41:25;101443.44;;;10.12;68.33
46690;BME280;32423;45.398;10.874;2022-12-29T10:44:15;101454.22;;;11.47;63.33
46690;BME280;32423;45.398;10.874;2022-12-29T10:47:06;101454.53;;;11.73;60.50
46690;BME280;32423;45.398;10.874;2022-12-29T10:49:52;101454.41;;;11.50;59.13
46690;BME280;32423;45.398;10.874;2022-12-29T10:52:38;101455.34;;;11.73;58.88
46690;BME280;32423;45.398;10.874;2022-12-29T10:55:32;101443.47;;;12.05;57.39
46690;BME280;32423;45.398;10.874;2022-12-29T10:58:18;101437.19;;;12.18;57.17
46690;BME280;32423;45.398;10.874;2022-12-29T11:01:03;101437.72;;;12.07;56.19
46690;BME280;32423;45.398;10.874;2022-12-29T11:04:03;101437.94;;;11.96;56.14
46690;BME280;32423;45.398;10.874;2022-12-29T11:06:50;101437.06;;;11.74;57.11
46690;BME280;32423;45.398;10.874;2022-12-29T11:09:37;101426.38;;;11.77;58.14
46690;BME280;32423;45.398;10.874;2022-12-29T11:12:28;101423.44;;;11.60;58.38
46690;BME280;32423;45.398;10.874;2022-12-29T11:15:15;101414.88;;;11.26;60.74
46690;BME280;32423;45.398;10.874;2022-12-29T11:18:00;101426.97;;;11.20;61.23
46690;BME280;32423;45.398;10.874;2022-12-29T11:20:45;101434.13;;;11.15;62.05
46690;BME280;32423;45.398;10.874;2022-12-29T11:26:20;101451.88;;;10.67;67.62
46690;BME280;32423;45.398;10.874;2022-12-29T11:31:55;101444.56;;;9.93;71.19
46690;BME280;32423;45.398;10.874;2022-12-29T11:34:41;101437.63;;;9.81;71.90
46690;BME280;32423;45.398;10.874;2022-12-29T11:37:28;101429.84;;;9.32;73.35
46690;BME280;32423;45.398;10.874;2022-12-29T11:40:19;101418.47;;;9.30;73.26
46690;BME280;32423;45.398;10.874;2022-12-29T11:43:06;101411.00;;;9.83;71.81
46690;BME280;32423;45.398;10.874;2022-12-29T11:46:03;101416.91;;;9.67;72.51
46690;BME280;32423;45.398;10.874;2022-12-29T11:48:49;101426.09;;;9.28;73.88
46690;BME280;32423;45.398;10.874;2022-12-29T11:51:43;101437.03;;;8.94;75.47
46690;BME280;32423;45.398;10.874;2022-12-29T11:54:35;101440.59;;;8.90;75.95
46690;BME280;32423;45.398;10.874;2022-12-29T11:57:21;101432.56;;;8.80;76.86
46690;BME280;32423;45.398;10.874;2022-12-29T12:00:17;101414.41;;;9.04;76.87
46690;BME280;32423;45.398;10.874;2022-12-29T12:03:08;101406.69;;;9.16;76.01
46690;BME280;32423;45.398;10.874;2022-12-29T12:06:01;101405.13;;;9.10;76.51
46690;BME280;32423;45.398;10.874;2022-12-29T12:09:16;101383.97;;;9.55;74.58
46690;BME280;32423;45.398;10.874;2022-12-29T12:12:05;101360.72;;;9.67;73.89
46690;BME280;32423;45.398;10.874;2022-12-29T12:14:56;101359.81;;;9.91;72.94
46690;BME280;32423;45.398;10.874;2022-12-29T12:21:09;101365.72;;;9.79;72.94
46690;BME280;32423;45.398;10.874;2022-12-29T12:27:30;101378.34;;;9.88;73.75
46690;BME280;32423;45.398;10.874;2022-12-29T12:30:21;101386.69;;;9.73;74.39
46690;BME280;32423;45.398;10.874;2022-12-29T12:33:27;101405.47;;;9.27;75.88
46690;BME280;32423;45.398;10.874;2022-12-29T12:45:32;101407.84;;;9.34;78.54
46690;BME280;32423;45.398;10.874;2022-12-29T12:48:48;101381.06;;;9.70;76.31
46690;BME280;32423;45.398;10.874;2022-12-29T12:52:01;101367.88;;;10.14;73.55
46690;BME280;32423;45.398;10.874;2022-12-29T12:55:17;101379.19;;;10.21;73.28
46690;BME280;32423;45.398;10.874;2022-12-29T13:01:25;101381.47;;;9.77;74.32
46690;BME280;32423;45.398;10.874;2022-12-29T13:04:36;101384.53;;;9.52;76.60
46690;BME280;32423;45.398;10.874;2022-12-29T13:07:36;101392.69;;;9.04;79.07
46690;BME280;32423;45.398;10.874;2022-12-29T13:16:53;101387.78;;;9.30;79.72
46690;BME280;32423;45.398;10.874;2022-12-29T13:23:05;101370.03;;;9.80;77.29
46690;BME280;32423;45.398;10.874;2022-12-29T13:25:56;101365.69;;;9.98;76.94
46690;BME280;32423;45.398;10.874;2022-12-29T13:28:58;101375.09;;;10.05;76.24
46690;BME280;32423;45.398;10.874;2022-12-29T13:38:23;101372.91;;;9.88;76.31
46690;BME280;32423;45.398;10.874;2022-12-29T13:41:15;101363.56;;;9.95;76.09
46690;BME280;32423;45.398;10.874;2022-12-29T13:44:03;101353.81;;;9.94;74.96
46690;BME280;32423;45.398;10.874;2022-12-29T13:46:51;101349.69;;;9.96;75.00
46690;BME280;32423;45.398;10.874;2022-12-29T13:49:38;101348.16;;;9.90;75.71
46690;BME280;32423;45.398;10.874;2022-12-29T13:55:44;101347.19;;;9.81;76.52
46690;BME280;32423;45.398;10.874;2022-12-29T13:58:37;101348.97;;;9.72;77.49
46690;BME280;32423;45.398;10.874;2022-12-29T14:01:28;101359.38;;;9.83;76.38
46690;BME280;32423;45.398;10.874;2022-12-29T14:04:25;101365.41;;;9.62;77.29
46690;BME280;32423;45.398;10.874;2022-12-29T14:07:16;101358.00;;;9.67;77.29
46690;BME280;32423;45.398;10.874;2022-12-29T14:10:02;101349.03;;;9.85;76.68
46690;BME280;32423;45.398;10.874;2022-12-29T14:12:47;101345.16;;;9.73;77.48
46690;BME280;32423;45.398;10.874;2022-12-29T14:15:38;101339.72;;;9.73;77.11
46690;BME280;32423;45.398;10.874;2022-12-29T14:18:29;101341.91;;;9.71;77.28
46690;BME280;32423;45.398;10.874;2022-12-29T14:24:26;101345.69;;;9.75;76.50
46690;BME280;32423;45.398;10.874;2022-12-29T14:29:55;101343.31;;;9.68;78.60
46690;BME280;32423;45.398;10.874;2022-12-29T14:32:40;101354.91;;;9.74;79.41
46690;BME280;32423;45.398;10.874;2022-12-29T14:35:46;101362.44;;;9.96;77.68
46690;BME280;32423;45.398;10.874;2022-12-29T14:38:44;101355.47;;;9.71;77.91
46690;BME280;32423;45.398;10.874;2022-12-29T14:41:33;101358.28;;;10.03;77.53
46690;BME280;32423;45.398;10.874;2022-12-29T14:44:20;101352.34;;;9.64;78.06
46690;BME280;32423;45.398;10.874;2022-12-29T14:47:06;101354.69;;;9.52;79.60
46690;BME280;32423;45.398;10.874;2022-12-29T14:49:53;101348.81;;;9.44;80.27
46690;BME280;32423;45.398;10.874;2022-12-29T14:53:00;101348.16;;;9.71;78.83
46690;BME280;32423;45.398;10.874;2022-12-29T14:55:55;101343.97;;;9.79;78.35
46690;BME280;32423;45.398;10.874;2022-12-29T15:01:39;101338.84;;;9.77;78.97
46690;BME280;32423;45.398;10.874;2022-12-29T15:04:35;101334.34;;;9.68;79.05
46690;BME280;32423;45.398;10.874;2022-12-29T15:07:20;101338.53;;;9.60;79.80
46690;BME280;32423;45.398;10.874;2022-12-29T15:10:11;101338.63;;;9.74;79.77
46690;BME280;32423;45.398;10.874;2022-12-29T15:13:03;101336.31;;;9.81;79.27
46690;BME280;32423;45.398;10.874;2022-12-29T15:15:49;101329.38;;;9.75;79.28
46690;BME280;32423;45.398;10.874;2022-12-29T15:18:33;101342.00;;;9.84;78.82
46690;BME280;32423;45.398;10.874;2022-12-29T15:21:26;101349.75;;;9.91;78.32
46690;BME280;32423;45.398;10.874;2022-12-29T15:24:11;101350.06;;;9.90;78.57
46690;BME280;32423;45.398;10.874;2022-12-29T15:26:57;101356.06;;;9.86;78.19
46690;BME280;32423;45.398;10.874;2022-12-29T15:29:43;101353.28;;;9.73;79.36
46690;BME280;32423;45.398;10.874;2022-12-29T15:32:39;101343.03;;;9.70;79.45
46690;BME280;32423;45.398;10.874;2022-12-29T15:35:36;101338.97;;;9.67;79.78
46690;BME280;32423;45.398;10.874;2022-12-29T15:38:24;101331.72;;;9.63;80.12
46690;BME280;32423;45.398;10.874;2022-12-29T15:46:52;101319.47;;;9.47;80.22
46690;BME280;32423;45.398;10.874;2022-12-29T15:49:37;101331.72;;;9.44;80.65
46690;BME280;32423;45.398;10.874;2022-12-29T15:52:23;101333.97;;;9.56;80.67
46690;BME280;32423;45.398;10.874;2022-12-29T15:55:19;101316.47;;;9.48;80.01
46690;BME280;32423;45.398;10.874;2022-12-29T15:58:20;101314.25;;;9.50;80.38
46690;BME280;32423;45.398;10.874;2022-12-29T16:01:18;101316.59;;;9.57;79.22
46690;BME280;32423;45.398;10.874;2022-12-29T16:04:06;101320.94;;;9.58;78.56
46690;BME280;32423;45.398;10.874;2022-12-29T16:07:01;101312.69;;;9.25;79.83
46690;BME280;32423;45.398;10.874;2022-12-29T16:09:46;101324.13;;;9.22;79.61
46690;BME280;32423;45.398;10.874;2022-12-29T16:12:35;101317.69;;;9.18;78.66
46690;BME280;32423;45.398;10.874;2022-12-29T16:15:21;101324.66;;;9.24;80.17
46690;BME280;32423;45.398;10.874;2022-12-29T16:18:20;101328.31;;;8.91;80.16
46690;BME280;32423;45.398;10.874;2022-12-29T16:21:16;101334.09;;;9.08;79.98
46690;BME280;32423;45.398;10.874;2022-12-29T16:24:11;101335.59;;;9.38;79.06
46690;BME280;32423;45.398;10.874;2022-12-29T16:29:46;101346.00;;;9.31;79.54
46690;BME280;32423;45.398;10.874;2022-12-29T16:32:32;101345.13;;;9.35;78.82
46690;BME280;32423;45.398;10.874;2022-12-29T16:38:13;101354.28;;;8.97;81.41